sensor_id;sensor_type;location;lat;lon;timestamp;P1;durP1;ratioP1;P2;durP2;ratioP2
84476;SDS011;74700;43.228;0.108;2024-02-21T00:01:37;46.47;;;19.75;;
84476;SDS011;74700;43.228;0.108;2024-02-21T00:04:03;32.95;;;17.42;;
84476;SDS011;74700;43.228;0.108;2024-02-21T00:06:29;39.42;;;18.17;;
84476;SDS011;74700;43.228;0.108;2024-02-21T00:08:55;29.17;;;16.33;;
84476;SDS011;74700;43.228;0.108;2024-02-21T00:11:21;30.88;;;15.13;;
84476;SDS011;74700;43.228;0.108;2024-02-21T00:13:47;23.75;;;13.00;;
84476;SDS011;74700;43.228;0.108;2024-02-21T00:16:13;26.23;;;14.07;;
84476;SDS011;74700;43.228;0.108;2024-02-21T00:18:41;31.48;;;13.85;;
84476;SDS011;74700;43.228;0.108;2024-02-21T00:21:07;34.65;;;14.82;;
84476;SDS011;74700;43.228;0.108;2024-02-21T00:23:33;28.10;;;14.80;;
84476;SDS011;74700;43.228;0.108;2024-02-21T00:25:59;31.05;;;14.32;;
84476;SDS011;74700;43.228;0.108;2024-02-21T00:28:25;30.60;;;14.35;;
84476;SDS011;74700;43.228;0.108;2024-02-21T00:30:51;29.40;;;14.25;;
84476;SDS011;74700;43.228;0.108;2024-02-21T00:33:18;25.83;;;12.85;;
84476;SDS011;74700;43.228;0.108;2024-02-21T00:35:44;21.92;;;12.45;;
84476;SDS011;74700;43.228;0.108;2024-02-21T00:38:10;22.75;;;11.13;;
84476;SDS011;74700;43.228;0.108;2024-02-21T00:40:36;25.63;;;11.20;;
84476;SDS011;74700;43.228;0.108;2024-02-21T00:43:02;20.05;;;10.45;;
84476;SDS011;74700;43.228;0.108;2024-02-21T00:45:28;19.65;;;11.23;;
84476;SDS011;74700;43.228;0.108;2024-02-21T00:47:54;24.85;;;11.55;;
84476;SDS011;74700;43.228;0.108;2024-02-21T00:50:20;21.25;;;10.05;;
84476;SDS011;74700;43.228;0.108;2024-02-21T00:52:46;24.90;;;10.75;;
84476;SDS011;74700;43.228;0.108;2024-02-21T00:55:13;20.58;;;10.55;;
84476;SDS011;74700;43.228;0.108;2024-02-21T00:57:39;21.38;;;10.75;;
84476;SDS011;74700;43.228;0.108;2024-02-21T01:00:05;27.70;;;11.38;;
84476;SDS011;74700;43.228;0.108;2024-02-21T01:02:33;23.13;;;10.13;;
84476;SDS011;74700;43.228;0.108;2024-02-21T01:04:59;28.88;;;10.88;;
84476;SDS011;74700;43.228;0.108;2024-02-21T01:07:26;25.58;;;10.98;;
84476;SDS011;74700;43.228;0.108;2024-02-21T01:09:52;16.63;;;8.48;;
84476;SDS011;74700;43.228;0.108;2024-02-21T01:12:18;19.42;;;9.10;;
84476;SDS011;74700;43.228;0.108;2024-02-21T01:14:44;21.00;;;9.48;;
84476;SDS011;74700;43.228;0.108;2024-02-21T01:17:14;15.15;;;9.18;;
84476;SDS011;74700;43.228;0.108;2024-02-21T01:19:40;19.73;;;9.20;;
84476;SDS011;74700;43.228;0.108;2024-02-21T01:22:06;23.08;;;9.98;;
84476;SDS011;74700;43.228;0.108;2024-02-21T01:24:33;18.23;;;9.55;;
84476;SDS011;74700;43.228;0.108;2024-02-21T01:26:59;16.80;;;9.48;;
84476;SDS011;74700;43.228;0.108;2024-02-21T01:29:25;28.00;;;9.68;;
84476;SDS011;74700;43.228;0.108;2024-02-21T01:31:51;21.15;;;9.18;;
84476;SDS011;74700;43.228;0.108;2024-02-21T01:34:17;20.05;;;9.30;;
84476;SDS011;74700;43.228;0.108;2024-02-21T01:36:43;21.10;;;10.00;;
84476;SDS011;74700;43.228;0.108;2024-02-21T01:39:09;20.33;;;10.15;;
84476;SDS011;74700;43.228;0.108;2024-02-21T01:41:35;16.88;;;9.30;;
84476;SDS011;74700;43.228;0.108;2024-02-21T01:44:01;25.77;;;10.40;;
84476;SDS011;74700;43.228;0.108;2024-02-21T01:46:26;23.77;;;9.80;;
84476;SDS011;74700;43.228;0.108;2024-02-21T01:48:57;21.60;;;9.85;;
84476;SDS011;74700;43.228;0.108;2024-02-21T01:51:23;19.02;;;9.93;;
84476;SDS011;74700;43.228;0.108;2024-02-21T01:53:50;17.95;;;9.57;;
84476;SDS011;74700;43.228;0.108;2024-02-21T01:56:17;17.73;;;8.90;;
84476;SDS011;74700;43.228;0.108;2024-02-21T01:58:43;24.65;;;10.13;;
84476;SDS011;74700;43.228;0.108;2024-02-21T02:01:09;19.02;;;9.85;;
84476;SDS011;74700;43.228;0.108;2024-02-21T02:03:36;27.15;;;9.55;;
84476;SDS011;74700;43.228;0.108;2024-02-21T02:06:03;20.50;;;9.50;;
84476;SDS011;74700;43.228;0.108;2024-02-21T02:08:30;22.52;;;9.88;;
84476;SDS011;74700;43.228;0.108;2024-02-21T02:10:57;16.75;;;9.25;;
84476;SDS011;74700;43.228;0.108;2024-02-21T02:13:23;17.25;;;8.50;;
84476;SDS011;74700;43.228;0.108;2024-02-21T02:15:49;13.73;;;8.95;;
84476;SDS011;74700;43.228;0.108;2024-02-21T02:18:16;16.33;;;8.93;;
84476;SDS011;74700;43.228;0.108;2024-02-21T02:20:43;17.98;;;9.38;;
84476;SDS011;74700;43.228;0.108;2024-02-21T02:23:30;21.02;;;8.98;;
84476;SDS011;74700;43.228;0.108;2024-02-21T02:25:57;25.48;;;9.82;;
84476;SDS011;74700;43.228;0.108;2024-02-21T02:28:23;20.77;;;9.13;;
84476;SDS011;74700;43.228;0.108;2024-02-21T02:30:49;21.60;;;9.02;;
84476;SDS011;74700;43.228;0.108;2024-02-21T02:33:15;24.00;;;9.57;;
84476;SDS011;74700;43.228;0.108;2024-02-21T02:35:44;17.15;;;9.23;;
84476;SDS011;74700;43.228;0.108;2024-02-21T02:38:11;16.40;;;9.05;;
84476;SDS011;74700;43.228;0.108;2024-02-21T02:40:38;24.38;;;9.55;;
84476;SDS011;74700;43.228;0.108;2024-02-21T02:43:05;17.67;;;9.15;;
84476;SDS011;74700;43.228;0.108;2024-02-21T02:45:31;15.70;;;8.35;;
84476;SDS011;74700;43.228;0.108;2024-02-21T02:47:58;13.38;;;8.25;;
84476;SDS011;74700;43.228;0.108;2024-02-21T02:50:24;19.58;;;8.65;;
84476;SDS011;74700;43.228;0.108;2024-02-21T02:52:50;16.23;;;8.57;;
84476;SDS011;74700;43.228;0.108;2024-02-21T02:55:16;19.95;;;8.93;;
84476;SDS011;74700;43.228;0.108;2024-02-21T02:57:42;18.88;;;8.73;;
84476;SDS011;74700;43.228;0.108;2024-02-21T03:00:12;16.17;;;8.00;;
84476;SDS011;74700;43.228;0.108;2024-02-21T03:02:39;19.38;;;9.05;;
84476;SDS011;74700;43.228;0.108;2024-02-21T03:05:15;19.13;;;7.93;;
84476;SDS011;74700;43.228;0.108;2024-02-21T03:07:42;22.80;;;8.60;;
84476;SDS011;74700;43.228;0.108;2024-02-21T03:10:08;18.60;;;8.77;;
84476;SDS011;74700;43.228;0.108;2024-02-21T03:12:35;16.10;;;8.85;;
84476;SDS011;74700;43.228;0.108;2024-02-21T03:15:01;18.05;;;9.02;;
84476;SDS011;74700;43.228;0.108;2024-02-21T03:17:27;17.25;;;8.45;;
84476;SDS011;74700;43.228;0.108;2024-02-21T03:19:53;16.30;;;8.65;;
84476;SDS011;74700;43.228;0.108;2024-02-21T03:22:20;14.15;;;8.60;;
84476;SDS011;74700;43.228;0.108;2024-02-21T03:24:46;15.23;;;7.60;;
84476;SDS011;74700;43.228;0.108;2024-02-21T03:27:12;17.63;;;8.07;;
84476;SDS011;74700;43.228;0.108;2024-02-21T03:29:38;14.90;;;7.55;;
84476;SDS011;74700;43.228;0.108;2024-02-21T03:32:04;20.13;;;10.15;;
84476;SDS011;74700;43.228;0.108;2024-02-21T03:34:30;19.75;;;9.05;;
84476;SDS011;74700;43.228;0.108;2024-02-21T03:36:56;14.65;;;9.13;;
84476;SDS011;74700;43.228;0.108;2024-02-21T03:39:22;17.40;;;8.93;;
84476;SDS011;74700;43.228;0.108;2024-02-21T03:41:48;19.48;;;9.68;;
84476;SDS011;74700;43.228;0.108;2024-02-21T03:44:14;19.20;;;9.13;;
84476;SDS011;74700;43.228;0.108;2024-02-21T03:46:40;16.83;;;9.13;;
84476;SDS011;74700;43.228;0.108;2024-02-21T03:49:06;15.02;;;8.68;;
84476;SDS011;74700;43.228;0.108;2024-02-21T03:51:32;16.83;;;8.52;;
84476;SDS011;74700;43.228;0.108;2024-02-21T03:53:58;19.90;;;7.43;;
84476;SDS011;74700;43.228;0.108;2024-02-21T03:56:24;19.40;;;7.55;;
84476;SDS011;74700;43.228;0.108;2024-02-21T03:58:50;17.73;;;7.95;;
84476;SDS011;74700;43.228;0.108;2024-02-21T04:01:16;13.43;;;7.82;;
84476;SDS011;74700;43.228;0.108;2024-02-21T04:03:43;19.00;;;7.78;;
84476;SDS011;74700;43.228;0.108;2024-02-21T04:06:09;13.43;;;8.07;;
84476;SDS011;74700;43.228;0.108;2024-02-21T04:08:35;18.33;;;7.32;;
84476;SDS011;74700;43.228;0.108;2024-02-21T04:11:01;18.63;;;7.97;;
84476;SDS011;74700;43.228;0.108;2024-02-21T04:13:27;15.00;;;7.50;;
84476;SDS011;74700;43.228;0.108;2024-02-21T04:15:54;15.05;;;7.07;;
84476;SDS011;74700;43.228;0.108;2024-02-21T04:18:20;12.27;;;6.65;;
84476;SDS011;74700;43.228;0.108;2024-02-21T04:20:46;10.73;;;7.18;;
84476;SDS011;74700;43.228;0.108;2024-02-21T04:23:12;11.35;;;6.05;;
84476;SDS011;74700;43.228;0.108;2024-02-21T04:25:39;10.13;;;5.95;;
84476;SDS011;74700;43.228;0.108;2024-02-21T04:28:05;15.75;;;6.70;;
84476;SDS011;74700;43.228;0.108;2024-02-21T04:30:31;19.45;;;5.78;;
84476;SDS011;74700;43.228;0.108;2024-02-21T04:32:57;21.70;;;6.00;;
84476;SDS011;74700;43.228;0.108;2024-02-21T04:35:23;11.82;;;5.22;;
84476;SDS011;74700;43.228;0.108;2024-02-21T04:37:49;9.23;;;5.68;;
84476;SDS011;74700;43.228;0.108;2024-02-21T04:40:15;18.05;;;6.68;;
84476;SDS011;74700;43.228;0.108;2024-02-21T04:42:42;11.82;;;6.55;;
84476;SDS011;74700;43.228;0.108;2024-02-21T04:45:08;16.15;;;6.05;;
84476;SDS011;74700;43.228;0.108;2024-02-21T04:47:34;12.90;;;4.85;;
84476;SDS011;74700;43.228;0.108;2024-02-21T04:50:00;9.52;;;5.30;;
84476;SDS011;74700;43.228;0.108;2024-02-21T04:52:26;11.05;;;5.97;;
84476;SDS011;74700;43.228;0.108;2024-02-21T04:54:52;14.02;;;5.03;;
84476;SDS011;74700;43.228;0.108;2024-02-21T04:57:18;15.45;;;5.15;;
84476;SDS011;74700;43.228;0.108;2024-02-21T04:59:44;12.20;;;5.15;;
84476;SDS011;74700;43.228;0.108;2024-02-21T05:02:11;7.72;;;4.40;;
84476;SDS011;74700;43.228;0.108;2024-02-21T05:04:37;5.63;;;4.35;;
84476;SDS011;74700;43.228;0.108;2024-02-21T05:07:03;13.07;;;4.72;;
84476;SDS011;74700;43.228;0.108;2024-02-21T05:09:30;5.10;;;4.40;;
84476;SDS011;74700;43.228;0.108;2024-02-21T05:11:56;13.32;;;5.60;;
84476;SDS011;74700;43.228;0.108;2024-02-21T05:14:24;6.65;;;4.40;;
84476;SDS011;74700;43.228;0.108;2024-02-21T05:16:50;5.32;;;4.18;;
84476;SDS011;74700;43.228;0.108;2024-02-21T05:19:16;12.48;;;4.18;;
84476;SDS011;74700;43.228;0.108;2024-02-21T05:21:42;8.07;;;5.00;;
84476;SDS011;74700;43.228;0.108;2024-02-21T05:24:08;13.55;;;4.72;;
84476;SDS011;74700;43.228;0.108;2024-02-21T05:26:34;11.15;;;4.38;;
84476;SDS011;74700;43.228;0.108;2024-02-21T05:29:00;12.30;;;5.72;;
84476;SDS011;74700;43.228;0.108;2024-02-21T05:31:26;11.35;;;5.25;;
84476;SDS011;74700;43.228;0.108;2024-02-21T05:33:52;8.30;;;5.00;;
84476;SDS011;74700;43.228;0.108;2024-02-21T05:36:18;8.43;;;5.60;;
84476;SDS011;74700;43.228;0.108;2024-02-21T05:38:44;19.75;;;12.98;;
84476;SDS011;74700;43.228;0.108;2024-02-21T05:41:10;20.42;;;13.68;;
84476;SDS011;74700;43.228;0.108;2024-02-21T05:43:36;22.35;;;12.25;;
84476;SDS011;74700;43.228;0.108;2024-02-21T05:46:02;24.35;;;13.85;;
84476;SDS011;74700;43.228;0.108;2024-02-21T05:48:28;12.90;;;9.25;;
84476;SDS011;74700;43.228;0.108;2024-02-21T05:50:54;16.10;;;10.75;;
84476;SDS011;74700;43.228;0.108;2024-02-21T05:53:20;13.45;;;7.15;;
84476;SDS011;74700;43.228;0.108;2024-02-21T05:55:46;8.73;;;5.70;;
84476;SDS011;74700;43.228;0.108;2024-02-21T05:58:12;12.63;;;5.80;;
84476;SDS011;74700;43.228;0.108;2024-02-21T06:00:39;10.85;;;6.03;;
84476;SDS011;74700;43.228;0.108;2024-02-21T06:03:05;10.45;;;6.13;;
84476;SDS011;74700;43.228;0.108;2024-02-21T06:05:36;9.68;;;5.13;;
84476;SDS011;74700;43.228;0.108;2024-02-21T06:08:03;8.15;;;5.32;;
84476;SDS011;74700;43.228;0.108;2024-02-21T06:10:29;10.75;;;4.85;;
84476;SDS011;74700;43.228;0.108;2024-02-21T06:12:55;8.95;;;5.18;;
84476;SDS011;74700;43.228;0.108;2024-02-21T06:15:21;3.67;;;3.38;;
84476;SDS011;74700;43.228;0.108;2024-02-21T06:17:47;14.20;;;4.70;;
84476;SDS011;74700;43.228;0.108;2024-02-21T06:20:15;10.15;;;4.40;;
84476;SDS011;74700;43.228;0.108;2024-02-21T06:22:41;12.73;;;3.85;;
84476;SDS011;74700;43.228;0.108;2024-02-21T06:25:07;6.63;;;3.67;;
84476;SDS011;74700;43.228;0.108;2024-02-21T06:27:33;7.55;;;5.45;;
84476;SDS011;74700;43.228;0.108;2024-02-21T06:29:59;8.98;;;5.28;;
84476;SDS011;74700;43.228;0.108;2024-02-21T06:32:25;7.30;;;5.05;;
84476;SDS011;74700;43.228;0.108;2024-02-21T06:34:51;4.20;;;3.80;;
84476;SDS011;74700;43.228;0.108;2024-02-21T06:37:18;10.32;;;4.18;;
84476;SDS011;74700;43.228;0.108;2024-02-21T06:39:44;6.93;;;3.80;;
84476;SDS011;74700;43.228;0.108;2024-02-21T06:42:10;7.68;;;4.03;;
84476;SDS011;74700;43.228;0.108;2024-02-21T06:44:36;10.50;;;5.10;;
84476;SDS011;74700;43.228;0.108;2024-02-21T06:47:05;9.95;;;4.57;;
84476;SDS011;74700;43.228;0.108;2024-02-21T06:49:33;8.13;;;4.63;;
84476;SDS011;74700;43.228;0.108;2024-02-21T06:52:00;6.43;;;5.00;;
84476;SDS011;74700;43.228;0.108;2024-02-21T06:54:26;10.50;;;4.50;;
84476;SDS011;74700;43.228;0.108;2024-02-21T06:56:52;4.20;;;3.80;;
84476;SDS011;74700;43.228;0.108;2024-02-21T06:59:18;6.70;;;3.63;;
84476;SDS011;74700;43.228;0.108;2024-02-21T07:01:44;6.60;;;4.03;;
84476;SDS011;74700;43.228;0.108;2024-02-21T07:04:11;6.70;;;4.65;;
84476;SDS011;74700;43.228;0.108;2024-02-21T07:06:37;6.20;;;4.88;;
84476;SDS011;74700;43.228;0.108;2024-02-21T07:09:03;12.50;;;4.53;;
84476;SDS011;74700;43.228;0.108;2024-02-21T07:11:29;4.22;;;3.30;;
84476;SDS011;74700;43.228;0.108;2024-02-21T07:13:55;7.90;;;3.40;;
84476;SDS011;74700;43.228;0.108;2024-02-21T07:16:21;12.23;;;3.55;;
84476;SDS011;74700;43.228;0.108;2024-02-21T07:18:47;12.43;;;3.10;;
84476;SDS011;74700;43.228;0.108;2024-02-21T07:21:13;5.05;;;2.78;;
84476;SDS011;74700;43.228;0.108;2024-02-21T07:23:40;6.00;;;3.20;;
84476;SDS011;74700;43.228;0.108;2024-02-21T07:26:07;6.38;;;3.38;;
84476;SDS011;74700;43.228;0.108;2024-02-21T07:28:33;5.20;;;3.30;;
84476;SDS011;74700;43.228;0.108;2024-02-21T07:30:59;3.05;;;2.83;;
84476;SDS011;74700;43.228;0.108;2024-02-21T07:33:25;11.35;;;2.92;;
84476;SDS011;74700;43.228;0.108;2024-02-21T07:35:51;4.50;;;3.10;;
84476;SDS011;74700;43.228;0.108;2024-02-21T07:38:17;3.67;;;2.95;;
84476;SDS011;74700;43.228;0.108;2024-02-21T07:40:45;3.33;;;2.88;;
84476;SDS011;74700;43.228;0.108;2024-02-21T07:43:11;6.82;;;3.50;;
84476;SDS011;74700;43.228;0.108;2024-02-21T07:45:37;4.68;;;3.70;;
84476;SDS011;74700;43.228;0.108;2024-02-21T07:48:04;8.70;;;4.05;;
84476;SDS011;74700;43.228;0.108;2024-02-21T07:50:31;9.68;;;4.10;;
84476;SDS011;74700;43.228;0.108;2024-02-21T07:52:57;7.95;;;3.22;;
84476;SDS011;74700;43.228;0.108;2024-02-21T07:55:23;6.88;;;3.33;;
84476;SDS011;74700;43.228;0.108;2024-02-21T07:57:49;4.75;;;3.45;;
84476;SDS011;74700;43.228;0.108;2024-02-21T08:00:15;9.40;;;3.17;;
84476;SDS011;74700;43.228;0.108;2024-02-21T08:02:48;3.50;;;3.10;;
84476;SDS011;74700;43.228;0.108;2024-02-21T08:05:14;6.55;;;3.15;;
84476;SDS011;74700;43.228;0.108;2024-02-21T08:07:40;4.07;;;3.15;;
84476;SDS011;74700;43.228;0.108;2024-02-21T08:10:06;6.68;;;2.95;;
84476;SDS011;74700;43.228;0.108;2024-02-21T08:12:36;11.30;;;3.42;;
84476;SDS011;74700;43.228;0.108;2024-02-21T08:15:02;4.35;;;2.60;;
84476;SDS011;74700;43.228;0.108;2024-02-21T08:17:29;4.53;;;3.10;;
84476;SDS011;74700;43.228;0.108;2024-02-21T08:19:55;4.88;;;3.30;;
84476;SDS011;74700;43.228;0.108;2024-02-21T08:22:21;8.13;;;4.53;;
84476;SDS011;74700;43.228;0.108;2024-02-21T08:24:47;8.57;;;4.35;;
84476;SDS011;74700;43.228;0.108;2024-02-21T08:27:13;10.13;;;4.63;;
84476;SDS011;74700;43.228;0.108;2024-02-21T08:29:39;9.82;;;4.25;;
84476;SDS011;74700;43.228;0.108;2024-02-21T08:32:05;9.98;;;3.80;;
84476;SDS011;74700;43.228;0.108;2024-02-21T08:34:31;4.72;;;3.20;;
84476;SDS011;74700;43.228;0.108;2024-02-21T08:36:59;5.70;;;2.83;;
84476;SDS011;74700;43.228;0.108;2024-02-21T08:39:25;3.92;;;2.90;;
84476;SDS011;74700;43.228;0.108;2024-02-21T08:41:53;3.88;;;2.90;;
84476;SDS011;74700;43.228;0.108;2024-02-21T08:44:19;3.28;;;2.90;;
84476;SDS011;74700;43.228;0.108;2024-02-21T08:46:45;3.28;;;2.70;;
84476;SDS011;74700;43.228;0.108;2024-02-21T08:49:12;8.88;;;2.92;;
84476;SDS011;74700;43.228;0.108;2024-02-21T08:51:38;6.40;;;2.53;;
84476;SDS011;74700;43.228;0.108;2024-02-21T08:54:04;8.65;;;3.47;;
84476;SDS011;74700;43.228;0.108;2024-02-21T08:56:30;3.72;;;3.08;;
84476;SDS011;74700;43.228;0.108;2024-02-21T08:58:57;6.22;;;3.00;;
84476;SDS011;74700;43.228;0.108;2024-02-21T09:01:23;4.72;;;2.60;;
84476;SDS011;74700;43.228;0.108;2024-02-21T09:03:49;4.97;;;2.38;;
84476;SDS011;74700;43.228;0.108;2024-02-21T09:06:18;5.75;;;2.70;;
84476;SDS011;74700;43.228;0.108;2024-02-21T09:08:45;7.90;;;2.75;;
84476;SDS011;74700;43.228;0.108;2024-02-21T09:11:11;4.03;;;2.80;;
84476;SDS011;74700;43.228;0.108;2024-02-21T09:13:37;3.03;;;2.45;;
84476;SDS011;74700;43.228;0.108;2024-02-21T09:16:03;2.63;;;2.42;;
84476;SDS011;74700;43.228;0.108;2024-02-21T09:18:31;4.72;;;2.38;;
84476;SDS011;74700;43.228;0.108;2024-02-21T09:20:57;4.72;;;2.20;;
84476;SDS011;74700;43.228;0.108;2024-02-21T09:23:26;3.50;;;2.55;;
84476;SDS011;74700;43.228;0.108;2024-02-21T09:25:52;4.45;;;1.90;;
84476;SDS011;74700;43.228;0.108;2024-02-21T09:28:20;8.57;;;2.70;;
84476;SDS011;74700;43.228;0.108;2024-02-21T09:30:46;3.00;;;2.05;;
84476;SDS011;74700;43.228;0.108;2024-02-21T09:33:12;2.65;;;1.95;;
84476;SDS011;74700;43.228;0.108;2024-02-21T09:35:38;5.07;;;2.10;;
84476;SDS011;74700;43.228;0.108;2024-02-21T09:38:04;3.25;;;1.77;;
84476;SDS011;74700;43.228;0.108;2024-02-21T09:40:30;3.47;;;1.90;;
84476;SDS011;74700;43.228;0.108;2024-02-21T09:43:05;14.63;;;1.83;;
84476;SDS011;74700;43.228;0.108;2024-02-21T09:45:32;6.97;;;2.28;;
84476;SDS011;74700;43.228;0.108;2024-02-21T09:50:44;4.88;;;1.67;;
84476;SDS011;74700;43.228;0.108;2024-02-21T09:53:11;1.65;;;1.35;;
84476;SDS011;74700;43.228;0.108;2024-02-21T09:55:40;5.50;;;1.73;;
84476;SDS011;74700;43.228;0.108;2024-02-21T09:58:07;1.55;;;1.17;;
84476;SDS011;74700;43.228;0.108;2024-02-21T10:00:33;5.63;;;1.63;;
84476;SDS011;74700;43.228;0.108;2024-02-21T10:03:00;5.30;;;1.65;;
84476;SDS011;74700;43.228;0.108;2024-02-21T10:05:26;4.55;;;2.83;;
84476;SDS011;74700;43.228;0.108;2024-02-21T10:07:54;8.88;;;1.90;;
84476;SDS011;74700;43.228;0.108;2024-02-21T10:10:21;8.90;;;1.73;;
84476;SDS011;74700;43.228;0.108;2024-02-21T10:12:48;3.85;;;1.70;;
84476;SDS011;74700;43.228;0.108;2024-02-21T10:15:19;2.38;;;1.35;;
84476;SDS011;74700;43.228;0.108;2024-02-21T10:17:45;3.47;;;1.35;;
84476;SDS011;74700;43.228;0.108;2024-02-21T10:20:11;6.95;;;1.55;;
84476;SDS011;74700;43.228;0.108;2024-02-21T10:22:39;17.35;;;1.98;;
84476;SDS011;74700;43.228;0.108;2024-02-21T10:25:08;4.97;;;1.00;;
84476;SDS011;74700;43.228;0.108;2024-02-21T10:27:36;5.63;;;1.48;;
84476;SDS011;74700;43.228;0.108;2024-02-21T10:30:02;8.20;;;1.40;;
84476;SDS011;74700;43.228;0.108;2024-02-21T10:32:28;3.75;;;1.02;;
84476;SDS011;74700;43.228;0.108;2024-02-21T10:35:02;4.43;;;1.45;;
84476;SDS011;74700;43.228;0.108;2024-02-21T10:37:29;7.78;;;2.00;;
84476;SDS011;74700;43.228;0.108;2024-02-21T10:39:56;10.68;;;1.90;;
84476;SDS011;74700;43.228;0.108;2024-02-21T10:42:22;4.57;;;1.25;;
84476;SDS011;74700;43.228;0.108;2024-02-21T10:44:51;6.13;;;1.45;;
84476;SDS011;74700;43.228;0.108;2024-02-21T10:47:17;1.08;;;1.02;;
84476;SDS011;74700;43.228;0.108;2024-02-21T10:49:46;1.55;;;0.93;;
84476;SDS011;74700;43.228;0.108;2024-02-21T10:52:15;2.08;;;0.77;;
84476;SDS011;74700;43.228;0.108;2024-02-21T10:54:53;0.82;;;0.82;;
84476;SDS011;74700;43.228;0.108;2024-02-21T10:57:24;2.00;;;1.02;;
84476;SDS011;74700;43.228;0.108;2024-02-21T10:59:52;1.50;;;0.90;;
84476;SDS011;74700;43.228;0.108;2024-02-21T11:02:19;4.47;;;0.98;;
84476;SDS011;74700;43.228;0.108;2024-02-21T11:04:45;2.42;;;1.08;;
84476;SDS011;74700;43.228;0.108;2024-02-21T11:07:11;6.53;;;1.55;;
84476;SDS011;74700;43.228;0.108;2024-02-21T11:09:38;2.83;;;1.10;;
84476;SDS011;74700;43.228;0.108;2024-02-21T11:12:04;1.00;;;1.00;;
84476;SDS011;74700;43.228;0.108;2024-02-21T11:14:31;1.27;;;1.17;;
84476;SDS011;74700;43.228;0.108;2024-02-21T11:17:02;1.88;;;1.40;;
84476;SDS011;74700;43.228;0.108;2024-02-21T11:19:29;1.98;;;1.17;;
84476;SDS011;74700;43.228;0.108;2024-02-21T11:21:56;4.00;;;1.08;;
84476;SDS011;74700;43.228;0.108;2024-02-21T11:24:30;6.35;;;1.10;;
84476;SDS011;74700;43.228;0.108;2024-02-21T11:27:07;1.38;;;1.27;;
84476;SDS011;74700;43.228;0.108;2024-02-21T11:29:33;1.17;;;1.08;;
84476;SDS011;74700;43.228;0.108;2024-02-21T11:32:06;1.17;;;1.08;;
84476;SDS011;74700;43.228;0.108;2024-02-21T11:34:35;3.80;;;1.10;;
84476;SDS011;74700;43.228;0.108;2024-02-21T11:37:01;1.20;;;1.10;;
84476;SDS011;74700;43.228;0.108;2024-02-21T11:39:27;1.45;;;1.25;;
84476;SDS011;74700;43.228;0.108;2024-02-21T11:42:06;2.88;;;1.92;;
84476;SDS011;74700;43.228;0.108;2024-02-21T11:44:33;4.20;;;1.88;;
84476;SDS011;74700;43.228;0.108;2024-02-21T11:46:59;3.17;;;1.50;;
84476;SDS011;74700;43.228;0.108;2024-02-21T11:49:26;1.42;;;1.30;;
84476;SDS011;74700;43.228;0.108;2024-02-21T11:51:58;1.17;;;1.17;;
84476;SDS011;74700;43.228;0.108;2024-02-21T11:54:25;1.55;;;1.30;;
84476;SDS011;74700;43.228;0.108;2024-02-21T11:56:51;1.70;;;1.50;;
84476;SDS011;74700;43.228;0.108;2024-02-21T11:59:17;1.65;;;1.50;;
84476;SDS011;74700;43.228;0.108;2024-02-21T12:01:43;4.68;;;1.85;;
84476;SDS011;74700;43.228;0.108;2024-02-21T12:04:09;2.88;;;1.80;;
84476;SDS011;74700;43.228;0.108;2024-02-21T12:06:36;2.05;;;1.67;;
84476;SDS011;74700;43.228;0.108;2024-02-21T12:09:02;1.70;;;1.60;;
84476;SDS011;74700;43.228;0.108;2024-02-21T12:11:28;2.22;;;1.70;;
84476;SDS011;74700;43.228;0.108;2024-02-21T12:14:00;2.20;;;1.90;;
84476;SDS011;74700;43.228;0.108;2024-02-21T12:16:28;2.67;;;1.45;;
84476;SDS011;74700;43.228;0.108;2024-02-21T12:18:55;3.60;;;1.45;;
84476;SDS011;74700;43.228;0.108;2024-02-21T12:21:25;4.03;;;1.65;;
84476;SDS011;74700;43.228;0.108;2024-02-21T12:23:53;2.13;;;1.88;;
84476;SDS011;74700;43.228;0.108;2024-02-21T12:26:19;1.73;;;1.58;;
84476;SDS011;74700;43.228;0.108;2024-02-21T12:28:45;2.53;;;1.60;;
84476;SDS011;74700;43.228;0.108;2024-02-21T12:31:11;2.85;;;1.52;;
84476;SDS011;74700;43.228;0.108;2024-02-21T12:33:37;6.88;;;3.72;;
84476;SDS011;74700;43.228;0.108;2024-02-21T12:36:03;65.03;;;4.30;;
84476;SDS011;74700;43.228;0.108;2024-02-21T12:38:29;3.17;;;1.83;;
84476;SDS011;74700;43.228;0.108;2024-02-21T12:40:55;3.20;;;1.88;;
84476;SDS011;74700;43.228;0.108;2024-02-21T12:43:25;4.13;;;1.60;;
84476;SDS011;74700;43.228;0.108;2024-02-21T12:45:51;11.15;;;1.98;;
84476;SDS011;74700;43.228;0.108;2024-02-21T12:48:17;7.07;;;3.20;;
84476;SDS011;74700;43.228;0.108;2024-02-21T12:50:50;5.40;;;3.10;;
84476;SDS011;74700;43.228;0.108;2024-02-21T12:53:19;2.85;;;1.55;;
84476;SDS011;74700;43.228;0.108;2024-02-21T12:55:47;3.50;;;2.03;;
84476;SDS011;74700;43.228;0.108;2024-02-21T12:58:13;2.35;;;1.90;;
84476;SDS011;74700;43.228;0.108;2024-02-21T13:00:40;3.65;;;1.75;;
84476;SDS011;74700;43.228;0.108;2024-02-21T13:03:06;3.60;;;2.13;;
84476;SDS011;74700;43.228;0.108;2024-02-21T13:05:32;3.53;;;2.30;;
84476;SDS011;74700;43.228;0.108;2024-02-21T13:07:58;8.77;;;2.88;;
84476;SDS011;74700;43.228;0.108;2024-02-21T13:10:24;7.88;;;2.28;;
84476;SDS011;74700;43.228;0.108;2024-02-21T13:12:51;5.55;;;2.05;;
84476;SDS011;74700;43.228;0.108;2024-02-21T13:15:17;4.07;;;1.80;;
84476;SDS011;74700;43.228;0.108;2024-02-21T13:17:43;1.80;;;1.70;;
84476;SDS011;74700;43.228;0.108;2024-02-21T13:20:10;2.38;;;1.90;;
84476;SDS011;74700;43.228;0.108;2024-02-21T13:22:36;3.30;;;2.13;;
84476;SDS011;74700;43.228;0.108;2024-02-21T13:25:02;8.00;;;2.45;;
84476;SDS011;74700;43.228;0.108;2024-02-21T13:27:28;2.85;;;2.08;;
84476;SDS011;74700;43.228;0.108;2024-02-21T13:29:54;2.30;;;1.83;;
84476;SDS011;74700;43.228;0.108;2024-02-21T13:32:20;3.28;;;2.38;;
84476;SDS011;74700;43.228;0.108;2024-02-21T13:34:46;2.92;;;2.10;;
84476;SDS011;74700;43.228;0.108;2024-02-21T13:37:13;2.75;;;1.92;;
84476;SDS011;74700;43.228;0.108;2024-02-21T13:39:40;1.52;;;1.42;;
84476;SDS011;74700;43.228;0.108;2024-02-21T13:42:06;3.28;;;1.90;;
84476;SDS011;74700;43.228;0.108;2024-02-21T13:44:32;5.80;;;1.60;;
84476;SDS011;74700;43.228;0.108;2024-02-21T13:46:59;1.83;;;1.65;;
84476;SDS011;74700;43.228;0.108;2024-02-21T13:49:25;5.43;;;2.88;;
84476;SDS011;74700;43.228;0.108;2024-02-21T13:51:51;4.47;;;2.30;;
84476;SDS011;74700;43.228;0.108;2024-02-21T13:54:17;6.22;;;2.28;;
84476;SDS011;74700;43.228;0.108;2024-02-21T13:56:44;3.88;;;2.10;;
84476;SDS011;74700;43.228;0.108;2024-02-21T13:59:11;3.72;;;1.83;;
84476;SDS011;74700;43.228;0.108;2024-02-21T14:01:40;3.97;;;1.92;;
84476;SDS011;74700;43.228;0.108;2024-02-21T14:04:07;3.50;;;2.00;;
84476;SDS011;74700;43.228;0.108;2024-02-21T14:06:33;8.38;;;1.80;;
84476;SDS011;74700;43.228;0.108;2024-02-21T14:09:00;2.60;;;1.70;;
84476;SDS011;74700;43.228;0.108;2024-02-21T14:11:26;10.18;;;1.98;;
84476;SDS011;74700;43.228;0.108;2024-02-21T14:13:52;11.60;;;1.80;;
84476;SDS011;74700;43.228;0.108;2024-02-21T14:16:22;7.47;;;2.20;;
84476;SDS011;74700;43.228;0.108;2024-02-21T14:18:48;7.15;;;1.70;;
84476;SDS011;74700;43.228;0.108;2024-02-21T14:21:14;2.33;;;1.88;;
84476;SDS011;74700;43.228;0.108;2024-02-21T14:23:40;3.45;;;1.88;;
84476;SDS011;74700;43.228;0.108;2024-02-21T14:26:06;4.15;;;2.25;;
84476;SDS011;74700;43.228;0.108;2024-02-21T14:28:32;2.08;;;1.63;;
84476;SDS011;74700;43.228;0.108;2024-02-21T14:30:59;2.35;;;1.88;;
84476;SDS011;74700;43.228;0.108;2024-02-21T14:33:25;4.47;;;2.03;;
84476;SDS011;74700;43.228;0.108;2024-02-21T14:35:52;3.15;;;1.63;;
84476;SDS011;74700;43.228;0.108;2024-02-21T14:38:18;3.15;;;1.98;;
84476;SDS011;74700;43.228;0.108;2024-02-21T14:40:45;3.10;;;2.05;;